sensor_id;sensor_type;location;lat;lon;timestamp;pressure;altitude;pressure_sealevel;temperature;humidity
66430;BME280;53242;51.694;10.006;2023-02-14T00:01:08;101596.88;;;3.04;84.61
66430;BME280;53242;51.694;10.006;2023-02-14T00:03:31;101598.25;;;2.81;84.92
66430;BME280;53242;51.694;10.006;2023-02-14T00:05:53;101598.16;;;2.97;84.52
66430;BME280;53242;51.694;10.006;2023-02-14T00:08:16;101600.78;;;2.83;84.80
66430;BME280;53242;51.694;10.006;2023-02-14T00:10:38;101597.69;;;2.90;84.36
66430;BME280;53242;51.694;10.006;2023-02-14T00:13:00;101602.25;;;2.72;84.63
66430;BME280;53242;51.694;10.006;2023-02-14T00:15:23;101605.69;;;2.73;84.83
66430;BME280;53242;51.694;10.006;2023-02-14T00:17:46;101601.41;;;2.72;84.73
66430;BME280;53242;51.694;10.006;2023-02-14T00:20:09;101597.94;;;2.57;84.97
66430;BME280;53242;51.694;10.006;2023-02-14T00:22:31;101594.88;;;2.65;84.45
66430;BME280;53242;51.694;10.006;2023-02-14T00:24:54;101601.28;;;2.59;84.64
66430;BME280;53242;51.694;10.006;2023-02-14T00:27:16;101595.03;;;2.61;84.18
66430;BME280;53242;51.694;10.006;2023-02-14T00:29:39;101598.88;;;2.70;83.70
66430;BME280;53242;51.694;10.006;2023-02-14T00:32:01;101593.50;;;2.73;83.55
66430;BME280;53242;51.694;10.006;2023-02-14T00:34:24;101597.09;;;2.56;84.53
66430;BME280;53242;51.694;10.006;2023-02-14T00:36:47;101602.41;;;2.55;84.86
66430;BME280;53242;51.694;10.006;2023-02-14T00:39:13;101605.69;;;2.73;84.92
66430;BME280;53242;51.694;10.006;2023-02-14T00:41:36;101605.63;;;2.74;85.25
66430;BME280;53242;51.694;10.006;2023-02-14T00:43:58;101603.63;;;2.63;85.65
66430;BME280;53242;51.694;10.006;2023-02-14T00:46:22;101605.06;;;2.69;85.99
66430;BME280;53242;51.694;10.006;2023-02-14T00:48:45;101593.66;;;2.70;86.03
66430;BME280;53242;51.694;10.006;2023-02-14T00:51:08;101594.88;;;2.65;86.62
66430;BME280;53242;51.694;10.006;2023-02-14T00:53:31;101595.03;;;2.61;86.17
66430;BME280;53242;51.694;10.006;2023-02-14T00:55:53;101599.69;;;2.56;86.29
66430;BME280;53242;51.694;10.006;2023-02-14T00:58:16;101606.25;;;2.33;86.32
66430;BME280;53242;51.694;10.006;2023-02-14T01:00:38;101606.47;;;2.44;85.89
66430;BME280;53242;51.694;10.006;2023-02-14T01:03:01;101606.81;;;2.69;85.46
66430;BME280;53242;51.694;10.006;2023-02-14T01:05:24;101598.41;;;2.63;85.25
66430;BME280;53242;51.694;10.006;2023-02-14T01:07:47;101601.59;;;2.69;85.32
66430;BME280;53242;51.694;10.006;2023-02-14T01:10:09;101608.81;;;2.49;85.73
66430;BME280;53242;51.694;10.006;2023-02-14T01:12:32;101616.22;;;2.41;85.94
66430;BME280;53242;51.694;10.006;2023-02-14T01:14:54;101620.56;;;2.26;85.91
66430;BME280;53242;51.694;10.006;2023-02-14T01:17:16;101610.28;;;2.39;86.06
66430;BME280;53242;51.694;10.006;2023-02-14T01:19:39;101610.53;;;2.34;86.31
66430;BME280;53242;51.694;10.006;2023-02-14T01:22:03;101615.41;;;2.40;86.01
66430;BME280;53242;51.694;10.006;2023-02-14T01:24:26;101609.53;;;2.37;85.98
66430;BME280;53242;51.694;10.006;2023-02-14T01:26:48;101615.31;;;2.42;85.55
66430;BME280;53242;51.694;10.006;2023-02-14T01:29:10;101617.38;;;2.21;86.28
66430;BME280;53242;51.694;10.006;2023-02-14T01:31:33;101615.84;;;2.33;86.19
66430;BME280;53242;51.694;10.006;2023-02-14T01:33:57;101613.50;;;2.28;85.89
66430;BME280;53242;51.694;10.006;2023-02-14T01:36:22;101614.47;;;2.41;85.31
66430;BME280;53242;51.694;10.006;2023-02-14T01:38:46;101621.19;;;2.45;85.36
66430;BME280;53242;51.694;10.006;2023-02-14T01:41:09;101611.47;;;2.33;85.64
66430;BME280;53242;51.694;10.006;2023-02-14T01:43:46;101621.41;;;2.26;85.97
66430;BME280;53242;51.694;10.006;2023-02-14T01:46:09;101623.28;;;2.24;85.43
66430;BME280;53242;51.694;10.006;2023-02-14T01:48:32;101631.81;;;2.26;85.23
66430;BME280;53242;51.694;10.006;2023-02-14T01:50:55;101624.41;;;2.35;84.83
66430;BME280;53242;51.694;10.006;2023-02-14T01:53:24;101619.22;;;2.19;85.38
66430;BME280;53242;51.694;10.006;2023-02-14T01:55:51;101620.28;;;2.30;85.61
66430;BME280;53242;51.694;10.006;2023-02-14T01:58:20;101625.94;;;2.23;85.91
66430;BME280;53242;51.694;10.006;2023-02-14T02:00:45;101618.50;;;2.17;85.89
66430;BME280;53242;51.694;10.006;2023-02-14T02:03:21;101624.28;;;2.22;85.76
66430;BME280;53242;51.694;10.006;2023-02-14T02:05:52;101618.97;;;2.23;85.64
66430;BME280;53242;51.694;10.006;2023-02-14T02:08:19;101615.97;;;2.15;85.59
66430;BME280;53242;51.694;10.006;2023-02-14T02:10:41;101616.38;;;2.23;85.31
66430;BME280;53242;51.694;10.006;2023-02-14T02:13:06;101602.09;;;2.14;85.67
66430;BME280;53242;51.694;10.006;2023-02-14T02:15:36;101600.91;;;2.20;84.97
66430;BME280;53242;51.694;10.006;2023-02-14T02:20:50;101598.81;;;2.27;84.96
66430;BME280;53242;51.694;10.006;2023-02-14T02:26:28;101599.00;;;2.08;85.08
66430;BME280;53242;51.694;10.006;2023-02-14T02:35:17;101582.50;;;2.23;84.64
66430;BME280;53242;51.694;10.006;2023-02-14T02:46:07;101584.50;;;1.88;84.90
66430;BME280;53242;51.694;10.006;2023-02-14T02:51:58;101578.16;;;1.61;85.73
66430;BME280;53242;51.694;10.006;2023-02-14T02:54:47;101586.53;;;1.83;85.05
66430;BME280;53242;51.694;10.006;2023-02-14T02:57:24;101576.97;;;1.83;84.97
66430;BME280;53242;51.694;10.006;2023-02-14T02:59:48;101569.00;;;1.70;85.34
66430;BME280;53242;51.694;10.006;2023-02-14T03:02:21;101565.13;;;1.77;85.24
66430;BME280;53242;51.694;10.006;2023-02-14T03:04:52;101575.53;;;1.77;85.05
66430;BME280;53242;51.694;10.006;2023-02-14T03:09:58;101574.38;;;1.83;85.03
66430;BME280;53242;51.694;10.006;2023-02-14T03:12:40;101565.03;;;1.79;85.40
66430;BME280;53242;51.694;10.006;2023-02-14T03:15:20;101578.47;;;1.71;85.37
66430;BME280;53242;51.694;10.006;2023-02-14T03:18:06;101569.91;;;1.53;85.67
66430;BME280;53242;51.694;10.006;2023-02-14T03:23:13;101567.06;;;1.58;85.44
66430;BME280;53242;51.694;10.006;2023-02-14T03:28:17;101560.38;;;1.54;85.26
66430;BME280;53242;51.694;10.006;2023-02-14T03:30:56;101551.06;;;1.50;85.39
66430;BME280;53242;51.694;10.006;2023-02-14T03:36:06;101560.69;;;1.47;85.62
66430;BME280;53242;51.694;10.006;2023-02-14T03:38:38;101558.50;;;1.56;85.17
66430;BME280;53242;51.694;10.006;2023-02-14T03:41:06;101553.97;;;1.59;85.46
66430;BME280;53242;51.694;10.006;2023-02-14T03:43:36;101550.03;;;1.52;85.47
66430;BME280;53242;51.694;10.006;2023-02-14T03:46:05;101544.13;;;1.64;85.42
66430;BME280;53242;51.694;10.006;2023-02-14T03:48:31;101546.75;;;1.64;85.19
66430;BME280;53242;51.694;10.006;2023-02-14T03:50:56;101548.94;;;1.56;84.92
66430;BME280;53242;51.694;10.006;2023-02-14T03:53:22;101545.00;;;1.49;84.98
66430;BME280;53242;51.694;10.006;2023-02-14T03:55:52;101531.31;;;1.61;84.74
66430;BME280;53242;51.694;10.006;2023-02-14T03:58:38;101545.47;;;1.56;85.42
66430;BME280;53242;51.694;10.006;2023-02-14T04:01:07;101547.78;;;1.46;85.40
66430;BME280;53242;51.694;10.006;2023-02-14T04:03:33;101547.69;;;1.47;85.13
66430;BME280;53242;51.694;10.006;2023-02-14T04:05:59;101541.56;;;1.48;85.09
66430;BME280;53242;51.694;10.006;2023-02-14T04:08:24;101544.91;;;1.51;84.75
66430;BME280;53242;51.694;10.006;2023-02-14T04:10:48;101541.56;;;1.48;85.04
66430;BME280;53242;51.694;10.006;2023-02-14T04:13:11;101538.38;;;1.43;84.47
66430;BME280;53242;51.694;10.006;2023-02-14T04:15:33;101537.50;;;1.43;84.41
66430;BME280;53242;51.694;10.006;2023-02-14T04:17:56;101541.06;;;1.42;84.37
66430;BME280;53242;51.694;10.006;2023-02-14T04:20:37;101538.38;;;1.43;84.40
66430;BME280;53242;51.694;10.006;2023-02-14T04:22:59;101542.56;;;1.30;84.64
66430;BME280;53242;51.694;10.006;2023-02-14T04:25:22;101543.72;;;1.40;84.37
66430;BME280;53242;51.694;10.006;2023-02-14T04:27:44;101532.81;;;1.34;84.28
66430;BME280;53242;51.694;10.006;2023-02-14T04:30:07;101546.84;;;1.31;83.78
66430;BME280;53242;51.694;10.006;2023-02-14T04:32:30;101542.41;;;1.33;84.07
66430;BME280;53242;51.694;10.006;2023-02-14T04:34:52;101549.63;;;1.28;84.09
66430;BME280;53242;51.694;10.006;2023-02-14T04:37:17;101551.94;;;1.33;84.14
66430;BME280;53242;51.694;10.006;2023-02-14T04:39:39;101547.03;;;1.28;84.24
66430;BME280;53242;51.694;10.006;2023-02-14T04:42:02;101548.53;;;1.32;84.08
66430;BME280;53242;51.694;10.006;2023-02-14T04:44:25;101555.59;;;0.96;84.66
66430;BME280;53242;51.694;10.006;2023-02-14T04:46:48;101544.56;;;1.09;84.91
66430;BME280;53242;51.694;10.006;2023-02-14T04:49:10;101546.56;;;1.04;84.51
66430;BME280;53242;51.694;10.006;2023-02-14T04:51:33;101550.19;;;1.17;84.55
66430;BME280;53242;51.694;10.006;2023-02-14T04:53:55;101547.53;;;1.19;84.13
66430;BME280;53242;51.694;10.006;2023-02-14T04:56:18;101538.13;;;1.16;83.82
66430;BME280;53242;51.694;10.006;2023-02-14T04:58:40;101544.25;;;1.15;84.35
66430;BME280;53242;51.694;10.006;2023-02-14T05:01:02;101546.06;;;1.13;83.99
66430;BME280;53242;51.694;10.006;2023-02-14T05:03:25;101542.88;;;1.08;84.17
66430;BME280;53242;51.694;10.006;2023-02-14T05:05:47;101540.38;;;1.22;83.26
66430;BME280;53242;51.694;10.006;2023-02-14T05:08:10;101543.88;;;0.89;84.01
66430;BME280;53242;51.694;10.006;2023-02-14T05:10:32;101538.34;;;0.95;83.93
66430;BME280;53242;51.694;10.006;2023-02-14T05:12:55;101544.16;;;1.01;83.88
66430;BME280;53242;51.694;10.006;2023-02-14T05:15:17;101541.78;;;0.96;83.62
66430;BME280;53242;51.694;10.006;2023-02-14T05:17:39;101541.19;;;1.07;83.34
66430;BME280;53242;51.694;10.006;2023-02-14T05:20:03;101542.53;;;0.98;83.95
66430;BME280;53242;51.694;10.006;2023-02-14T05:22:26;101537.81;;;0.89;84.00
66430;BME280;53242;51.694;10.006;2023-02-14T05:24:49;101541.69;;;0.97;83.66
66430;BME280;53242;51.694;10.006;2023-02-14T05:27:11;101536.34;;;1.01;84.05
66430;BME280;53242;51.694;10.006;2023-02-14T05:29:33;101536.75;;;1.09;83.81
66430;BME280;53242;51.694;10.006;2023-02-14T05:31:56;101533.47;;;1.05;83.26
66430;BME280;53242;51.694;10.006;2023-02-14T05:34:18;101534.34;;;1.06;83.30
66430;BME280;53242;51.694;10.006;2023-02-14T05:36:41;101531.88;;;1.03;83.12
66430;BME280;53242;51.694;10.006;2023-02-14T05:39:03;101526.09;;;0.97;83.42
66430;BME280;53242;51.694;10.006;2023-02-14T05:41:26;101527.25;;;0.92;83.42
66430;BME280;53242;51.694;10.006;2023-02-14T05:43:48;101524.59;;;1.09;83.27
66430;BME280;53242;51.694;10.006;2023-02-14T05:46:11;101534.34;;;1.06;83.10
66430;BME280;53242;51.694;10.006;2023-02-14T05:48:33;101537.00;;;1.04;82.93
66430;BME280;53242;51.694;10.006;2023-02-14T05:50:56;101526.78;;;1.01;82.93
66430;BME280;53242;51.694;10.006;2023-02-14T05:53:18;101533.16;;;0.95;83.37
66430;BME280;53242;51.694;10.006;2023-02-14T05:55:40;101533.28;;;0.92;82.90
66430;BME280;53242;51.694;10.006;2023-02-14T05:58:03;101530.75;;;0.75;83.39
66430;BME280;53242;51.694;10.006;2023-02-14T06:00:25;101526.47;;;0.74;83.70
66430;BME280;53242;51.694;10.006;2023-02-14T06:02:48;101529.50;;;0.82;83.66
66430;BME280;53242;51.694;10.006;2023-02-14T06:05:10;101535.97;;;0.91;83.22
66430;BME280;53242;51.694;10.006;2023-02-14T06:07:33;101537.59;;;0.93;82.57
66430;BME280;53242;51.694;10.006;2023-02-14T06:09:55;101537.59;;;0.93;82.98
66430;BME280;53242;51.694;10.006;2023-02-14T06:12:18;101546.88;;;0.97;82.56
66430;BME280;53242;51.694;10.006;2023-02-14T06:14:40;101544.06;;;1.02;82.79
66430;BME280;53242;51.694;10.006;2023-02-14T06:17:04;101547.16;;;1.09;82.37
66430;BME280;53242;51.694;10.006;2023-02-14T06:19:26;101551.44;;;1.10;82.37
66430;BME280;53242;51.694;10.006;2023-02-14T06:21:48;101555.97;;;1.06;82.57
66430;BME280;53242;51.694;10.006;2023-02-14T06:24:11;101548.41;;;1.02;82.93
66430;BME280;53242;51.694;10.006;2023-02-14T06:26:33;101547.53;;;1.19;82.71
66430;BME280;53242;51.694;10.006;2023-02-14T06:28:57;101546.56;;;1.04;83.68
66430;BME280;53242;51.694;10.006;2023-02-14T06:31:20;101553.28;;;1.08;83.45
66430;BME280;53242;51.694;10.006;2023-02-14T06:33:43;101556.06;;;1.05;83.27
66430;BME280;53242;51.694;10.006;2023-02-14T06:36:06;101547.47;;;1.03;82.96
66430;BME280;53242;51.694;10.006;2023-02-14T06:38:28;101557.34;;;1.13;83.29
66430;BME280;53242;51.694;10.006;2023-02-14T06:40:50;101556.59;;;0.94;83.41
66430;BME280;53242;51.694;10.006;2023-02-14T06:43:13;101558.81;;;1.02;82.99
66430;BME280;53242;51.694;10.006;2023-02-14T06:45:35;101549.34;;;1.01;83.20
66430;BME280;53242;51.694;10.006;2023-02-14T06:47:58;101556.06;;;1.05;83.24
66430;BME280;53242;51.694;10.006;2023-02-14T06:50:21;101560.06;;;1.10;82.78
66430;BME280;53242;51.694;10.006;2023-02-14T06:52:43;101555.59;;;0.96;83.42
66430;BME280;53242;51.694;10.006;2023-02-14T06:55:06;101561.91;;;0.92;83.41
66430;BME280;53242;51.694;10.006;2023-02-14T06:57:28;101558.97;;;0.98;83.18
66430;BME280;53242;51.694;10.006;2023-02-14T06:59:51;101559.22;;;0.94;83.30
66430;BME280;53242;51.694;10.006;2023-02-14T07:02:13;101554.53;;;1.01;82.70
66430;BME280;53242;51.694;10.006;2023-02-14T07:04:36;101550.75;;;1.06;82.72
66430;BME280;53242;51.694;10.006;2023-02-14T07:06:58;101552.69;;;1.03;82.74
66430;BME280;53242;51.694;10.006;2023-02-14T07:09:22;101556.19;;;1.02;82.07
66430;BME280;53242;51.694;10.006;2023-02-14T07:11:45;101554.06;;;1.10;82.16
66430;BME280;53242;51.694;10.006;2023-02-14T07:14:07;101553.53;;;1.03;81.79
66430;BME280;53242;51.694;10.006;2023-02-14T07:16:30;101557.97;;;1.01;82.12
66430;BME280;53242;51.694;10.006;2023-02-14T07:18:52;101553.69;;;1.00;82.38
66430;BME280;53242;51.694;10.006;2023-02-14T07:21:15;101546.88;;;0.97;82.37
66430;BME280;53242;51.694;10.006;2023-02-14T07:23:38;101551.75;;;0.88;83.14
66430;BME280;53242;51.694;10.006;2023-02-14T07:26:00;101553.47;;;1.05;82.74
66430;BME280;53242;51.694;10.006;2023-02-14T07:28:23;101547.41;;;1.04;82.79
66430;BME280;53242;51.694;10.006;2023-02-14T07:30:45;101547.56;;;1.01;82.80
66430;BME280;53242;51.694;10.006;2023-02-14T07:33:07;101543.38;;;0.98;82.99
66430;BME280;53242;51.694;10.006;2023-02-14T07:35:30;101545.88;;;1.00;83.14
66430;BME280;53242;51.694;10.006;2023-02-14T07:37:53;101547.25;;;1.07;82.79
66430;BME280;53242;51.694;10.006;2023-02-14T07:40:15;101541.28;;;1.05;82.68
66430;BME280;53242;51.694;10.006;2023-02-14T07:42:37;101546.88;;;0.97;83.28
66430;BME280;53242;51.694;10.006;2023-02-14T07:45:00;101542.53;;;0.98;83.50
66430;BME280;53242;51.694;10.006;2023-02-14T07:47:23;101549.56;;;0.96;83.11
66430;BME280;53242;51.694;10.006;2023-02-14T07:49:46;101545.69;;;0.87;83.71
66430;BME280;53242;51.694;10.006;2023-02-14T07:52:08;101545.97;;;0.98;83.46
66430;BME280;53242;51.694;10.006;2023-02-14T07:54:31;101547.16;;;1.09;82.50
66430;BME280;53242;51.694;10.006;2023-02-14T07:56:54;101543.69;;;0.92;82.92
66430;BME280;53242;51.694;10.006;2023-02-14T07:59:16;101541.88;;;0.94;83.30
66430;BME280;53242;51.694;10.006;2023-02-14T08:01:38;101545.56;;;0.90;83.44
66430;BME280;53242;51.694;10.006;2023-02-14T08:04:01;101545.19;;;0.96;83.12
66430;BME280;53242;51.694;10.006;2023-02-14T08:06:23;101549.16;;;1.04;83.05
66430;BME280;53242;51.694;10.006;2023-02-14T08:08:48;101551.28;;;1.13;83.00
66430;BME280;53242;51.694;10.006;2023-02-14T08:11:11;101543.56;;;0.95;83.26
66430;BME280;53242;51.694;10.006;2023-02-14T08:13:54;101549.00;;;0.73;84.37
66430;BME280;53242;51.694;10.006;2023-02-14T08:16:16;101545.97;;;0.98;83.65
66430;BME280;53242;51.694;10.006;2023-02-14T08:18:40;101552.84;;;1.00;83.32
66430;BME280;53242;51.694;10.006;2023-02-14T08:21:04;101550.75;;;0.90;83.86
66430;BME280;53242;51.694;10.006;2023-02-14T08:23:27;101560.53;;;1.19;83.25
66430;BME280;53242;51.694;10.006;2023-02-14T08:25:50;101551.88;;;1.34;82.64
66430;BME280;53242;51.694;10.006;2023-02-14T08:28:13;101549.81;;;0.91;83.50
66430;BME280;53242;51.694;10.006;2023-02-14T08:30:36;101552.69;;;1.03;83.53
66430;BME280;53242;51.694;10.006;2023-02-14T08:32:59;101553.69;;;1.00;84.07
66430;BME280;53242;51.694;10.006;2023-02-14T08:35:21;101559.34;;;1.24;83.33
66430;BME280;53242;51.694;10.006;2023-02-14T08:37:44;101559.88;;;0.97;84.20
66430;BME280;53242;51.694;10.006;2023-02-14T08:40:06;101556.31;;;1.32;84.59
66430;BME280;53242;51.694;10.006;2023-02-14T08:42:29;101553.28;;;1.56;84.42
66430;BME280;53242;51.694;10.006;2023-02-14T08:44:52;101552.88;;;1.63;83.89
66430;BME280;53242;51.694;10.006;2023-02-14T08:47:14;101552.19;;;1.76;83.95
66430;BME280;53242;51.694;10.006;2023-02-14T08:49:36;101547.13;;;1.89;83.57
66430;BME280;53242;51.694;10.006;2023-02-14T08:51:59;101548.16;;;1.86;84.30
66430;BME280;53242;51.694;10.006;2023-02-14T08:54:21;101549.19;;;1.68;84.31
66430;BME280;53242;51.694;10.006;2023-02-14T08:56:44;101548.19;;;2.01;84.35
66430;BME280;53242;51.694;10.006;2023-02-14T08:59:06;101543.09;;;2.13;83.67
66430;BME280;53242;51.694;10.006;2023-02-14T09:01:28;101529.59;;;2.37;83.45
66430;BME280;53242;51.694;10.006;2023-02-14T09:03:51;101530.06;;;2.58;82.29
66430;BME280;53242;51.694;10.006;2023-02-14T09:06:15;101530.41;;;2.38;83.43
66430;BME280;53242;51.694;10.006;2023-02-14T09:08:38;101527.72;;;2.54;83.64
66430;BME280;53242;51.694;10.006;2023-02-14T09:11:07;101523.56;;;2.66;83.08
66430;BME280;53242;51.694;10.006;2023-02-14T09:13:30;101535.47;;;2.70;83.04
66430;BME280;53242;51.694;10.006;2023-02-14T09:15:52;101531.94;;;2.71;82.80
66430;BME280;53242;51.694;10.006;2023-02-14T09:18:15;101529.53;;;2.96;82.36
66430;BME280;53242;51.694;10.006;2023-02-14T09:20:37;101526.25;;;2.93;82.15
66430;BME280;53242;51.694;10.006;2023-02-14T09:23:00;101524.09;;;3.00;81.82
66430;BME280;53242;51.694;10.006;2023-02-14T09:25:22;101521.41;;;3.16;82.02
66430;BME280;53242;51.694;10.006;2023-02-14T09:27:44;101523.38;;;2.98;82.93
66430;BME280;53242;51.694;10.006;2023-02-14T09:30:08;101523.81;;;3.19;83.57
66430;BME280;53242;51.694;10.006;2023-02-14T09:32:31;101518.97;;;3.40;82.55
66430;BME280;53242;51.694;10.006;2023-02-14T09:34:53;101514.94;;;3.21;82.56
66430;BME280;53242;51.694;10.006;2023-02-14T09:37:16;101513.22;;;3.35;82.77
66430;BME280;53242;51.694;10.006;2023-02-14T09:39:38;101512.00;;;3.13;83.14
66430;BME280;53242;51.694;10.006;2023-02-14T09:42:21;101514.47;;;3.29;83.85
66430;BME280;53242;51.694;10.006;2023-02-14T09:44:52;101514.78;;;3.37;83.22
66430;BME280;53242;51.694;10.006;2023-02-14T09:49:42;101498.06;;;3.94;82.64
66430;BME280;53242;51.694;10.006;2023-02-14T09:52:06;101499.31;;;4.02;82.15
66430;BME280;53242;51.694;10.006;2023-02-14T09:54:33;101502.25;;;3.97;82.18
66430;BME280;53242;51.694;10.006;2023-02-14T09:57:00;101496.59;;;3.90;83.03
66430;BME280;53242;51.694;10.006;2023-02-14T09:59:34;101500.19;;;4.15;83.56
66430;BME280;53242;51.694;10.006;2023-02-14T10:05:04;101501.75;;;4.18;83.94
66430;BME280;53242;51.694;10.006;2023-02-14T10:08:02;101508.03;;;4.15;83.73
66430;BME280;53242;51.694;10.006;2023-02-14T10:10:32;101507.41;;;4.24;83.80
66430;BME280;53242;51.694;10.006;2023-02-14T10:13:03;101507.00;;;4.43;83.37
66430;BME280;53242;51.694;10.006;2023-02-14T10:15:33;101506.25;;;4.54;83.16
66430;BME280;53242;51.694;10.006;2023-02-14T10:20:36;101500.28;;;4.78;83.22
66430;BME280;53242;51.694;10.006;2023-02-14T10:23:04;101506.75;;;4.85;83.24
66430;BME280;53242;51.694;10.006;2023-02-14T10:25:37;101501.25;;;5.14;82.32
66430;BME280;53242;51.694;10.006;2023-02-14T10:28:02;101495.75;;;5.30;81.72
66430;BME280;53242;51.694;10.006;2023-02-14T10:30:24;101498.09;;;5.46;81.54
66430;BME280;53242;51.694;10.006;2023-02-14T10:35:49;101497.69;;;5.39;80.95
66430;BME280;53242;51.694;10.006;2023-02-14T10:38:28;101493.13;;;5.54;81.50
66430;BME280;53242;51.694;10.006;2023-02-14T10:41:13;101493.19;;;5.66;81.53
66430;BME280;53242;51.694;10.006;2023-02-14T10:44:24;101485.03;;;5.57;81.90
66430;BME280;53242;51.694;10.006;2023-02-14T10:46:58;101485.22;;;5.67;82.48
66430;BME280;53242;51.694;10.006;2023-02-14T10:49:42;101479.16;;;5.67;82.49
66430;BME280;53242;51.694;10.006;2023-02-14T10:52:14;101483.75;;;5.87;81.72
66430;BME280;53242;51.694;10.006;2023-02-14T10:54:42;101477.66;;;5.87;81.66
66430;BME280;53242;51.694;10.006;2023-02-14T10:57:39;101476.66;;;6.01;82.06
66430;BME280;53242;51.694;10.006;2023-02-14T11:00:05;101467.31;;;5.97;81.65
66430;BME280;53242;51.694;10.006;2023-02-14T11:02:43;101461.06;;;6.11;81.39
66430;BME280;53242;51.694;10.006;2023-02-14T11:07:45;101457.88;;;6.41;81.09
66430;BME280;53242;51.694;10.006;2023-02-14T11:10:12;101448.34;;;6.29;80.93
66430;BME280;53242;51.694;10.006;2023-02-14T11:12:38;101443.22;;;6.38;81.06
66430;BME280;53242;51.694;10.006;2023-02-14T11:17:35;101438.06;;;6.71;79.98
66430;BME280;53242;51.694;10.006;2023-02-14T11:20:20;101434.72;;;6.80;79.99
66430;BME280;53242;51.694;10.006;2023-02-14T11:22:43;101438.31;;;6.68;80.22
66430;BME280;53242;51.694;10.006;2023-02-14T11:25:17;101435.28;;;6.84;79.96
66430;BME280;53242;51.694;10.006;2023-02-14T11:27:42;101432.19;;;6.90;79.93
66430;BME280;53242;51.694;10.006;2023-02-14T11:30:18;101434.78;;;7.01;79.63
66430;BME280;53242;51.694;10.006;2023-02-14T11:32:48;101427.84;;;7.12;79.50
66430;BME280;53242;51.694;10.006;2023-02-14T11:35:19;101425.19;;;7.23;79.26
66430;BME280;53242;51.694;10.006;2023-02-14T11:37:44;101424.22;;;7.24;79.38
66430;BME280;53242;51.694;10.006;2023-02-14T11:40:29;101424.53;;;7.42;79.15
66430;BME280;53242;51.694;10.006;2023-02-14T11:42:51;101411.94;;;7.46;78.49
66430;BME280;53242;51.694;10.006;2023-02-14T11:45:30;101411.72;;;7.49;78.14
66430;BME280;53242;51.694;10.006;2023-02-14T11:48:16;101411.25;;;7.44;77.36
66430;BME280;53242;51.694;10.006;2023-02-14T11:50:39;101412.78;;;7.46;78.48
66430;BME280;53242;51.694;10.006;2023-02-14T11:53:03;101405.69;;;7.58;77.76
66430;BME280;53242;51.694;10.006;2023-02-14T11:55:28;101399.97;;;7.53;78.00
66430;BME280;53242;51.694;10.006;2023-02-14T11:57:53;101401.78;;;7.52;77.84
66430;BME280;53242;51.694;10.006;2023-02-14T12:00:17;101391.78;;;7.46;78.48
66430;BME280;53242;51.694;10.006;2023-02-14T12:02:46;101398.53;;;7.60;77.48
66430;BME280;53242;51.694;10.006;2023-02-14T12:07:43;101391.41;;;7.72;78.07
66430;BME280;53242;51.694;10.006;2023-02-14T12:12:36;101381.06;;;8.01;76.79
66430;BME280;53242;51.694;10.006;2023-02-14T12:17:45;101370.97;;;8.06;76.51
66430;BME280;53242;51.694;10.006;2023-02-14T12:20:14;101364.41;;;8.01;76.79
66430;BME280;53242;51.694;10.006;2023-02-14T12:25:49;101355.13;;;7.97;76.69
66430;BME280;53242;51.694;10.006;2023-02-14T12:28:21;101353.13;;;8.10;76.29
66430;BME280;53242;51.694;10.006;2023-02-14T12:30:48;101359.66;;;8.16;76.36
66430;BME280;53242;51.694;10.006;2023-02-14T12:33:18;101350.66;;;8.18;75.42
66430;BME280;53242;51.694;10.006;2023-02-14T12:38:24;101347.22;;;8.28;75.51
66430;BME280;53242;51.694;10.006;2023-02-14T12:41:27;101348.19;;;8.27;75.33
66430;BME280;53242;51.694;10.006;2023-02-14T12:44:06;101343.63;;;8.29;74.41
66430;BME280;53242;51.694;10.006;2023-02-14T12:47:09;101347.44;;;8.46;74.21
66430;BME280;53242;51.694;10.006;2023-02-14T12:50:08;101341.25;;;8.57;73.75
66430;BME280;53242;51.694;10.006;2023-02-14T12:55:40;101337.69;;;8.77;74.44
66430;BME280;53242;51.694;10.006;2023-02-14T13:01:00;101320.09;;;8.78;74.38
66430;BME280;53242;51.694;10.006;2023-02-14T13:03:43;101317.59;;;8.76;73.58
66430;BME280;53242;51.694;10.006;2023-02-14T13:06:58;101309.97;;;8.93;74.42
66430;BME280;53242;51.694;10.006;2023-02-14T13:09:19;101302.88;;;8.83;72.62
66430;BME280;53242;51.694;10.006;2023-02-14T13:17:23;101290.41;;;9.15;73.16
66430;BME280;53242;51.694;10.006;2023-02-14T13:22:29;101283.06;;;8.99;74.05
66430;BME280;53242;51.694;10.006;2023-02-14T13:25:02;101280.44;;;9.09;73.71
66430;BME280;53242;51.694;10.006;2023-02-14T13:27:28;101274.75;;;9.13;73.78
66430;BME280;53242;51.694;10.006;2023-02-14T13:29:56;101270.97;;;9.26;73.52
66430;BME280;53242;51.694;10.006;2023-02-14T13:32:23;101276.53;;;9.23;73.37
66430;BME280;53242;51.694;10.006;2023-02-14T13:34:48;101263.47;;;9.31;73.42
66430;BME280;53242;51.694;10.006;2023-02-14T13:37:13;101268.06;;;9.29;73.53
66430;BME280;53242;51.694;10.006;2023-02-14T13:39:42;101260.69;;;9.32;72.87
66430;BME280;53242;51.694;10.006;2023-02-14T13:42:05;101262.09;;;9.36;73.40
66430;BME280;53242;51.694;10.006;2023-02-14T13:44:47;101265.94;;;9.42;73.04
66430;BME280;53242;51.694;10.006;2023-02-14T13:47:23;101261.78;;;9.49;72.56
66430;BME280;53242;51.694;10.006;2023-02-14T13:49:57;101255.56;;;9.41;73.27
66430;BME280;53242;51.694;10.006;2023-02-14T13:52:41;101253.31;;;9.46;72.68
66430;BME280;53242;51.694;10.006;2023-02-14T13:55:24;101256.50;;;9.49;72.99
66430;BME280;53242;51.694;10.006;2023-02-14T13:58:03;101245.97;;;9.49;73.06
66430;BME280;53242;51.694;10.006;2023-02-14T14:00:38;101243.72;;;9.54;72.66
66430;BME280;53242;51.694;10.006;2023-02-14T14:03:00;101236.22;;;9.60;72.80
66430;BME280;53242;51.694;10.006;2023-02-14T14:10:51;101232.88;;;9.58;73.35